Time;durP1;ratioP1;P1;durP2;ratioP2;P2;SDS_P1;SDS_P2;PMS_P1;PMS_P2;Temp;Humidity;BMP_temperature;BMP_pressure;BME280_temperature;BME280_humidity;BME280_pressure;Samples;Min_cycle;Max_cycle;Signal;HPM_P1;HPM_P2
2023/07/20 00:01:26;;;;;;;3.65;2.70;;;20.90;99.90;;;;;;5049388;28;20178;-28
2023/07/20 00:03:54;;;;;;;4.10;2.67;;;20.90;99.90;;;;;;5032265;28;20663;-29
2023/07/20 00:06:27;;;;;;;3.20;2.03;;;20.90;99.90;;;;;;5031901;28;20178;-29
2023/07/20 00:08:54;;;;;;;4.95;2.40;;;20.90;99.90;;;;;;5032524;28;20208;-30
2023/07/20 00:11:21;;;;;;;3.63;2.35;;;20.90;99.90;;;;;;5067033;28;20178;-29
2023/07/20 00:13:47;;;;;;;3.00;2.63;;;20.80;99.90;;;;;;5052328;28;20209;-29
2023/07/20 00:16:13;;;;;;;2.75;2.40;;;20.80;99.90;;;;;;5068845;28;20673;-29
2023/07/20 00:18:39;;;;;;;5.55;2.70;;;20.70;99.90;;;;;;5072123;28;20225;-29
2023/07/20 00:21:05;;;;;;;3.88;2.80;;;20.60;99.90;;;;;;5061213;28;20178;-30
2023/07/20 00:23:30;;;;;;;3.03;2.40;;;20.60;99.90;;;;;;5068113;28;20189;-29
2023/07/20 00:25:56;;;;;;;4.47;2.72;;;20.50;99.90;;;;;;5071965;28;20197;-30
2023/07/20 00:28:22;;;;;;;3.70;2.60;;;20.40;99.90;;;;;;5054751;28;20265;-29
2023/07/20 00:30:48;;;;;;;3.47;2.47;;;20.40;99.90;;;;;;5038644;28;20196;-29
2023/07/20 00:33:18;;;;;;;4.10;2.60;;;20.30;99.90;;;;;;5048387;28;20201;-30
2023/07/20 00:35:44;;;;;;;3.22;2.90;;;20.20;99.90;;;;;;5057592;28;20166;-29
2023/07/20 00:38:11;;;;;;;5.72;2.70;;;20.20;99.90;;;;;;5038333;28;20194;-29
2023/07/20 00:40:41;;;;;;;5.00;3.08;;;20.00;99.90;;;;;;5061966;28;20775;-29
2023/07/20 00:43:08;;;;;;;4.28;2.83;;;20.00;99.90;;;;;;5036160;28;20174;-28
2023/07/20 00:45:36;;;;;;;4.97;2.63;;;19.80;99.90;;;;;;5035867;28;20280;-29
2023/07/20 00:48:04;;;;;;;3.95;2.58;;;19.70;99.90;;;;;;5051498;28;20288;-29
2023/07/20 00:50:31;;;;;;;5.28;2.85;;;19.70;99.90;;;;;;5072781;28;20185;-29
2023/07/20 00:52:58;;;;;;;3.67;3.17;;;19.60;99.90;;;;;;5072048;28;20257;-29
2023/07/20 00:55:25;;;;;;;2.72;2.45;;;19.60;99.90;;;;;;5059564;28;20224;-29
2023/07/20 00:57:53;;;;;;;4.32;2.78;;;19.50;99.90;;;;;;5035781;28;20184;-29
2023/07/20 01:00:19;;;;;;;3.13;2.50;;;19.50;99.90;;;;;;5035614;28;20319;-29
2023/07/20 01:02:46;;;;;;;2.92;2.53;;;19.40;99.90;;;;;;5051699;28;20182;-30
2023/07/20 01:05:13;;;;;;;3.00;2.70;;;19.30;99.90;;;;;;5070542;28;20185;-29
2023/07/20 01:08:03;;;;;;;5.10;2.67;;;19.20;99.90;;;;;;5071904;28;20188;-30
2023/07/20 01:10:45;;;;;;;3.80;2.35;;;19.10;99.90;;;;;;5071959;28;20279;-29
2023/07/20 01:13:14;;;;;;;4.18;2.70;;;19.10;99.90;;;;;;5064672;28;20213;-29
2023/07/20 01:15:39;;;;;;;4.60;2.38;;;19.10;99.90;;;;;;5042941;28;20285;-30
2023/07/20 01:18:05;;;;;;;5.07;2.53;;;19.10;99.90;;;;;;5051704;28;20269;-30
2023/07/20 01:20:33;;;;;;;3.17;2.70;;;19.00;99.90;;;;;;5049813;28;20261;-29
2023/07/20 01:23:34;;;;;;;2.97;2.65;;;19.00;99.90;;;;;;5048834;28;20186;-30
2023/07/20 01:26:26;;;;;;;4.65;2.38;;;18.90;99.90;;;;;;5049722;28;20177;-28
2023/07/20 01:29:21;;;;;;;5.25;2.97;;;18.90;99.90;;;;;;5073734;28;20225;-29
2023/07/20 01:31:52;;;;;;;3.22;2.50;;;19.00;99.90;;;;;;5031751;28;20178;-29
2023/07/20 01:34:19;;;;;;;3.17;2.63;;;18.90;99.90;;;;;;5043293;28;20186;-28
2023/07/20 01:36:48;;;;;;;3.03;2.70;;;18.90;99.90;;;;;;5027080;28;20280;-28
2023/07/20 01:39:14;;;;;;;5.07;2.95;;;18.80;99.90;;;;;;5051222;28;20205;-28
2023/07/20 01:41:40;;;;;;;3.28;2.97;;;18.80;99.90;;;;;;5051142;28;20270;-29
2023/07/20 01:44:06;;;;;;;2.83;2.50;;;18.70;99.90;;;;;;5034789;28;20190;-29
2023/07/20 01:46:32;;;;;;;3.25;2.88;;;18.60;99.90;;;;;;5031645;28;20198;-29
2023/07/20 01:48:58;;;;;;;3.42;2.92;;;18.60;99.90;;;;;;5037571;28;20202;-30
2023/07/20 01:51:24;;;;;;;7.00;3.03;;;18.50;99.90;;;;;;5043958;28;20186;-29
2023/07/20 01:53:50;;;;;;;6.35;2.80;;;18.50;99.90;;;;;;5042273;28;20205;-29
2023/07/20 01:56:16;;;;;;;3.90;3.05;;;18.40;99.90;;;;;;5050930;28;20182;-29
2023/07/20 01:58:42;;;;;;;3.13;2.80;;;18.40;99.90;;;;;;5051174;28;20201;-28
2023/07/20 02:01:08;;;;;;;3.67;3.05;;;18.40;99.90;;;;;;5032975;28;20646;-29
2023/07/20 02:03:34;;;;;;;3.10;2.80;;;18.30;99.90;;;;;;5053664;28;20180;-29
2023/07/20 02:06:00;;;;;;;3.67;3.10;;;18.30;99.90;;;;;;5056021;28;20213;-28
2023/07/20 02:08:25;;;;;;;4.00;3.28;;;18.30;99.90;;;;;;5034803;28;20205;-29
2023/07/20 02:10:52;;;;;;;3.22;2.92;;;18.30;99.90;;;;;;5038312;28;20187;-29
2023/07/20 02:13:18;;;;;;;4.18;2.83;;;18.30;99.90;;;;;;5050487;28;20206;-29
2023/07/20 02:15:44;;;;;;;3.78;2.80;;;18.40;99.90;;;;;;5051013;28;20292;-29
2023/07/20 02:18:10;;;;;;;3.30;2.92;;;18.40;99.90;;;;;;5057225;28;20197;-30
2023/07/20 02:20:36;;;;;;;4.10;2.75;;;18.50;99.90;;;;;;5070431;28;20189;-29
2023/07/20 02:23:02;;;;;;;4.85;3.05;;;18.50;99.90;;;;;;5063642;28;20178;-29
2023/07/20 02:25:28;;;;;;;3.70;2.90;;;18.50;99.90;;;;;;5050655;28;20301;-29
2023/07/20 02:27:54;;;;;;;4.35;3.03;;;18.40;99.90;;;;;;5034001;28;20182;-29
2023/07/20 02:30:19;;;;;;;3.42;2.90;;;18.40;99.90;;;;;;5050560;28;20186;-29
2023/07/20 02:32:48;;;;;;;3.53;2.50;;;18.40;99.90;;;;;;5050140;28;20197;-29
2023/07/20 02:35:17;;;;;;;4.47;2.90;;;18.40;99.90;;;;;;5050664;28;20178;-28
2023/07/20 02:37:43;;;;;;;3.45;2.78;;;18.40;99.90;;;;;;5050295;28;20193;-29
2023/07/20 02:40:09;;;;;;;3.67;2.50;;;18.40;99.90;;;;;;5064207;28;20177;-29
2023/07/20 02:42:36;;;;;;;2.92;2.63;;;18.30;99.90;;;;;;5070395;28;20203;-28
2023/07/20 02:45:04;;;;;;;3.45;2.85;;;18.30;99.90;;;;;;5070575;28;20644;-29
2023/07/20 02:47:30;;;;;;;4.60;2.63;;;18.30;99.90;;;;;;5059170;28;20174;-29
2023/07/20 02:49:56;;;;;;;3.40;2.97;;;18.30;99.90;;;;;;5050236;28;20202;-29
2023/07/20 02:52:23;;;;;;;3.15;2.65;;;18.30;99.90;;;;;;5049023;28;20214;-30
2023/07/20 02:54:49;;;;;;;3.63;2.60;;;18.30;99.90;;;;;;5049167;28;20173;-30
2023/07/20 02:57:14;;;;;;;5.10;2.70;;;18.40;99.90;;;;;;5033788;28;20261;-29
2023/07/20 02:59:40;;;;;;;2.83;2.38;;;18.40;99.90;;;;;;5050589;28;20190;-29
2023/07/20 03:02:09;;;;;;;4.22;2.95;;;18.40;99.90;;;;;;5034636;28;20182;-30
2023/07/20 03:04:36;;;;;;;3.03;2.58;;;18.30;99.90;;;;;;5049845;28;20240;-29
2023/07/20 03:07:04;;;;;;;3.92;2.90;;;18.20;99.90;;;;;;5049940;28;20174;-29
2023/07/20 03:09:30;;;;;;;4.68;3.05;;;18.10;99.90;;;;;;5050273;28;20288;-29
2023/07/20 03:11:56;;;;;;;6.28;2.88;;;17.90;99.90;;;;;;5050047;28;20264;-29
2023/07/20 03:14:23;;;;;;;3.63;2.58;;;17.80;99.90;;;;;;5051077;28;20714;-29
2023/07/20 03:16:49;;;;;;;4.68;2.88;;;17.70;99.90;;;;;;5071780;28;20189;-29
2023/07/20 03:19:15;;;;;;;5.35;3.17;;;17.60;99.90;;;;;;5069966;28;20209;-29
2023/07/20 03:21:42;;;;;;;5.28;2.95;;;17.70;99.90;;;;;;5070332;28;20720;-29
2023/07/20 03:24:08;;;;;;;4.20;2.65;;;17.60;99.90;;;;;;5067012;28;20186;-29
2023/07/20 03:26:36;;;;;;;3.45;2.45;;;17.50;99.90;;;;;;5049622;28;20186;-30
2023/07/20 03:29:02;;;;;;;5.03;2.80;;;17.50;99.90;;;;;;5035722;28;20248;-29
2023/07/20 03:31:28;;;;;;;3.60;3.00;;;17.40;99.90;;;;;;5049345;28;20228;-30
2023/07/20 03:33:54;;;;;;;3.22;2.70;;;17.40;99.90;;;;;;5049120;28;20217;-29
2023/07/20 03:36:20;;;;;;;3.10;2.67;;;17.40;99.90;;;;;;5049789;28;20231;-29
2023/07/20 03:38:46;;;;;;;3.63;3.33;;;17.40;99.90;;;;;;5049632;28;20239;-29
2023/07/20 03:41:12;;;;;;;3.80;3.03;;;17.20;99.90;;;;;;5049503;28;20169;-30
2023/07/20 03:43:38;;;;;;;4.20;2.60;;;17.20;99.90;;;;;;5053925;28;20659;-30
2023/07/20 03:46:07;;;;;;;4.50;2.80;;;17.20;99.90;;;;;;5069361;28;20213;-29
2023/07/20 03:48:33;;;;;;;3.50;2.70;;;17.20;99.90;;;;;;5057524;28;20752;-29
2023/07/20 03:51:02;;;;;;;4.20;2.95;;;17.10;99.90;;;;;;5050448;28;20320;-29
2023/07/20 03:53:28;;;;;;;4.57;2.72;;;17.10;99.90;;;;;;5052452;28;20255;-28
2023/07/20 03:55:54;;;;;;;3.42;2.78;;;17.10;99.90;;;;;;5054141;28;20181;-30
2023/07/20 03:58:21;;;;;;;3.30;3.00;;;17.00;99.90;;;;;;5053324;28;20247;-29
2023/07/20 04:00:52;;;;;;;3.17;2.83;;;17.00;99.90;;;;;;5073385;28;20181;-29
2023/07/20 04:03:19;;;;;;;5.17;3.33;;;16.90;99.90;;;;;;5063009;28;20571;-29
2023/07/20 04:05:45;;;;;;;5.50;3.53;;;16.90;99.90;;;;;;5053432;28;20186;-29
2023/07/20 04:08:11;;;;;;;5.57;3.13;;;16.80;99.90;;;;;;5054153;28;20252;-30
2023/07/20 04:10:38;;;;;;;5.40;3.40;;;16.80;99.90;;;;;;5053220;28;20272;-29
2023/07/20 04:13:04;;;;;;;8.20;3.00;;;16.90;99.90;;;;;;5053087;28;20250;-29
2023/07/20 04:15:31;;;;;;;4.97;3.27;;;16.90;99.90;;;;;;5057292;28;20308;-30
2023/07/20 04:17:57;;;;;;;3.47;3.00;;;16.90;99.90;;;;;;5060166;28;20213;-30
2023/07/20 04:20:23;;;;;;;2.97;2.67;;;16.80;99.90;;;;;;5061241;28;20210;-30
2023/07/20 04:22:50;;;;;;;4.17;3.10;;;16.80;99.90;;;;;;5059520;28;20185;-29
2023/07/20 04:25:17;;;;;;;4.77;2.67;;;16.80;99.90;;;;;;5053198;28;20196;-29
2023/07/20 04:27:43;;;;;;;3.40;2.90;;;16.80;99.90;;;;;;5053114;28;20190;-29
2023/07/20 04:30:11;;;;;;;3.87;3.23;;;16.80;99.90;;;;;;5035817;28;20196;-29
2023/07/20 04:32:45;;;;;;;5.13;3.20;;;16.80;99.90;;;;;;5036172;28;20212;-31
2023/07/20 04:35:38;;;;;;;2.83;2.60;;;16.80;99.90;;;;;;5036116;28;20265;-29
2023/07/20 04:38:05;;;;;;;4.43;2.93;;;16.80;99.90;;;;;;5036303;28;20205;-29
2023/07/20 04:40:31;;;;;;;5.43;3.13;;;16.80;99.90;;;;;;5052640;28;20174;-29
2023/07/20 04:42:58;;;;;;;3.87;2.77;;;16.90;99.90;;;;;;5053465;28;20248;-30
2023/07/20 04:45:24;;;;;;;5.63;2.70;;;17.00;99.90;;;;;;5048163;28;20185;-29
2023/07/20 04:47:51;;;;;;;6.82;3.10;;;17.00;99.90;;;;;;5052123;28;20235;-29
2023/07/20 04:50:17;;;;;;;4.10;3.10;;;17.00;99.90;;;;;;5038732;28;20174;-29
2023/07/20 04:52:43;;;;;;;3.50;3.20;;;17.00;99.90;;;;;;5032125;28;20674;-29
2023/07/20 04:55:12;;;;;;;3.70;3.10;;;17.00;99.90;;;;;;5027079;28;20229;-29
2023/07/20 04:57:37;;;;;;;4.27;3.03;;;16.90;99.90;;;;;;5052103;28;20228;-29
2023/07/20 05:00:05;;;;;;;4.50;3.07;;;16.80;99.90;;;;;;5037491;28;20222;-29
2023/07/20 05:02:31;;;;;;;3.20;2.90;;;16.80;99.90;;;;;;5050587;28;20223;-29
2023/07/20 05:04:57;;;;;;;4.07;3.20;;;16.80;99.90;;;;;;5050885;28;20181;-29
2023/07/20 05:07:23;;;;;;;4.60;3.03;;;16.80;99.90;;;;;;5058848;28;20265;-29
2023/07/20 05:09:49;;;;;;;3.83;3.07;;;16.80;99.90;;;;;;5058923;28;20234;-30
2023/07/20 05:12:15;;;;;;;4.73;3.00;;;16.90;99.90;;;;;;5050332;28;20248;-30
2023/07/20 05:14:42;;;;;;;4.73;3.10;;;16.90;99.90;;;;;;5051621;28;20259;-30
2023/07/20 05:17:07;;;;;;;4.37;3.07;;;16.90;99.90;;;;;;5052169;28;20177;-30
2023/07/20 05:19:33;;;;;;;4.17;3.13;;;17.00;99.90;;;;;;5052100;28;20194;-29
2023/07/20 05:21:59;;;;;;;4.00;3.10;;;17.10;99.90;;;;;;5052449;28;20174;-29
2023/07/20 05:24:26;;;;;;;5.30;3.40;;;17.20;99.90;;;;;;5052286;28;20185;-29
2023/07/20 05:26:52;;;;;;;4.13;3.50;;;17.30;99.90;;;;;;5051645;28;20243;-29
2023/07/20 05:29:17;;;;;;;3.78;3.00;;;17.40;99.90;;;;;;5034052;28;20688;-29
2023/07/20 05:31:43;;;;;;;6.13;3.30;;;17.50;99.90;;;;;;5034781;28;20208;-29
2023/07/20 05:34:09;;;;;;;5.70;3.22;;;17.50;99.90;;;;;;5032261;28;20202;-30
2023/07/20 05:36:35;;;;;;;3.40;2.90;;;17.60;99.90;;;;;;5056743;28;20217;-29
2023/07/20 05:39:01;;;;;;;4.60;3.38;;;17.60;99.90;;;;;;5055092;28;20209;-29
2023/07/20 05:41:26;;;;;;;6.00;3.17;;;17.80;99.90;;;;;;5053790;28;20189;-30
2023/07/20 05:43:52;;;;;;;3.75;2.95;;;17.90;99.90;;;;;;5053847;28;20186;-29
2023/07/20 05:46:18;;;;;;;4.93;3.17;;;18.00;99.90;;;;;;5051541;28;20269;-29
2023/07/20 05:48:44;;;;;;;5.22;2.90;;;18.10;99.90;;;;;;5051606;28;20198;-29
2023/07/20 05:51:10;;;;;;;4.38;3.10;;;18.20;99.90;;;;;;5051520;28;20220;-29
2023/07/20 05:53:36;;;;;;;3.15;2.83;;;18.20;99.90;;;;;;5049838;28;20201;-29
2023/07/20 05:56:02;;;;;;;3.33;2.72;;;18.30;99.90;;;;;;5051272;28;20244;-29
2023/07/20 05:58:28;;;;;;;4.30;2.88;;;18.40;99.90;;;;;;5034853;28;20233;-29
2023/07/20 06:00:54;;;;;;;5.32;3.10;;;18.40;99.90;;;;;;5034996;28;20181;-30
2023/07/20 06:03:22;;;;;;;4.82;2.95;;;18.50;99.90;;;;;;5051169;28;20189;-29
2023/07/20 06:05:47;;;;;;;3.92;3.15;;;18.50;99.90;;;;;;5034571;28;20261;-30
2023/07/20 06:08:13;;;;;;;5.32;2.85;;;18.60;99.90;;;;;;5034828;28;20262;-30
2023/07/20 06:10:39;;;;;;;5.45;2.88;;;18.70;99.90;;;;;;5034641;28;20193;-29
2023/07/20 06:13:06;;;;;;;6.90;3.60;;;18.80;99.90;;;;;;5034348;28;20267;-29
2023/07/20 06:15:35;;;;;;;3.55;2.97;;;18.90;99.90;;;;;;5050588;28;20182;-30
2023/07/20 06:18:01;;;;;;;3.50;3.20;;;18.90;99.90;;;;;;5034068;28;20239;-30
2023/07/20 06:20:27;;;;;;;3.35;2.97;;;19.00;99.90;;;;;;5034409;28;20184;-30
2023/07/20 06:22:53;;;;;;;4.25;3.33;;;19.10;99.90;;;;;;5034031;28;20185;-30
2023/07/20 06:25:20;;;;;;;6.25;3.33;;;19.10;99.90;;;;;;5034186;28;20178;-30
2023/07/20 06:27:46;;;;;;;6.03;3.00;;;19.20;99.90;;;;;;5042113;28;20193;-30
2023/07/20 06:30:12;;;;;;;4.53;2.83;;;19.20;99.90;;;;;;5034237;28;20182;-30
2023/07/20 06:32:39;;;;;;;4.15;2.80;;;19.40;99.90;;;;;;5050286;28;20286;-30
2023/07/20 06:35:05;;;;;;;4.63;2.78;;;19.40;99.90;;;;;;5050887;28;20257;-30
2023/07/20 06:37:32;;;;;;;4.30;3.00;;;19.40;99.90;;;;;;5050659;28;20237;-30
2023/07/20 06:39:58;;;;;;;4.28;3.00;;;19.50;99.90;;;;;;5034023;28;20680;-30
2023/07/20 06:42:24;;;;;;;5.10;3.05;;;19.50;99.90;;;;;;5033415;28;20185;-30
2023/07/20 06:44:50;;;;;;;3.15;2.65;;;19.60;99.90;;;;;;5033971;28;20209;-30
2023/07/20 06:47:15;;;;;;;4.05;2.83;;;19.70;99.90;;;;;;5033612;28;20249;-30
2023/07/20 06:49:41;;;;;;;5.93;3.15;;;19.70;99.90;;;;;;5050485;28;20197;-30
2023/07/20 06:52:07;;;;;;;4.90;3.05;;;19.80;99.90;;;;;;5033331;28;20182;-30
2023/07/20 06:54:33;;;;;;;7.00;2.95;;;19.90;99.90;;;;;;5033638;28;20181;-30
2023/07/20 06:56:59;;;;;;;6.88;3.25;;;20.00;99.90;;;;;;5033213;28;20178;-30
2023/07/20 06:59:25;;;;;;;4.45;2.80;;;20.00;99.90;;;;;;5033595;28;20201;-29
2023/07/20 07:01:51;;;;;;;5.95;3.30;;;20.10;99.90;;;;;;5049949;28;20174;-30
2023/07/20 07:04:17;;;;;;;4.38;2.70;;;20.10;99.90;;;;;;5033493;28;20178;-29
2023/07/20 07:06:43;;;;;;;4.07;2.67;;;20.20;99.90;;;;;;5033483;28;20186;-30
2023/07/20 07:09:08;;;;;;;7.60;2.95;;;20.10;99.90;;;;;;5050097;28;20200;-30
2023/07/20 07:11:34;;;;;;;4.13;3.15;;;20.20;99.90;;;;;;5033235;28;20185;-30
2023/07/20 07:14:00;;;;;;;4.80;3.00;;;20.20;99.90;;;;;;5033222;28;20266;-31
2023/07/20 07:16:26;;;;;;;6.25;3.13;;;20.10;99.90;;;;;;5049976;28;20215;-30
2023/07/20 07:18:52;;;;;;;5.40;3.00;;;20.20;99.90;;;;;;5033005;28;20193;-30
2023/07/20 07:21:18;;;;;;;4.35;2.83;;;20.30;99.90;;;;;;5033082;28;20185;-30
2023/07/20 07:23:44;;;;;;;4.63;3.03;;;20.40;99.90;;;;;;5033251;28;20189;-30
2023/07/20 07:26:10;;;;;;;5.57;2.72;;;20.40;99.90;;;;;;5049027;28;20220;-30
2023/07/20 07:28:37;;;;;;;4.00;3.05;;;20.50;99.90;;;;;;5048538;28;20237;-30
2023/07/20 07:31:06;;;;;;;3.38;2.95;;;20.60;99.90;;;;;;5032402;28;20189;-30
2023/07/20 07:33:32;;;;;;;3.47;2.60;;;20.60;99.90;;;;;;5030589;28;20289;-30
2023/07/20 07:35:58;;;;;;;3.72;2.60;;;20.70;99.90;;;;;;5049809;28;20178;-30
2023/07/20 07:38:24;;;;;;;4.47;2.60;;;20.80;99.90;;;;;;5038030;28;20190;-30
2023/07/20 07:40:50;;;;;;;4.55;2.72;;;21.00;99.90;;;;;;5033774;28;20273;-30
2023/07/20 07:43:16;;;;;;;3.75;2.72;;;21.10;99.90;;;;;;5032986;28;20188;-29
2023/07/20 07:45:42;;;;;;;4.32;2.80;;;21.20;99.90;;;;;;5032845;28;20186;-30
2023/07/20 07:48:11;;;;;;;4.97;3.05;;;21.30;99.90;;;;;;5032843;28;20213;-30
2023/07/20 07:50:38;;;;;;;4.25;2.95;;;21.40;99.90;;;;;;5049754;28;20209;-30
2023/07/20 07:53:04;;;;;;;5.13;3.00;;;21.60;99.90;;;;;;5049442;28;20213;-30
2023/07/20 07:55:29;;;;;;;4.75;2.70;;;21.70;99.90;;;;;;5049414;28;20267;-29
2023/07/20 07:57:55;;;;;;;3.25;2.65;;;21.80;99.90;;;;;;5049075;28;20174;-31
2023/07/20 08:00:21;;;;;;;3.97;2.80;;;21.90;99.90;;;;;;5049605;28;20250;-30
2023/07/20 08:02:50;;;;;;;3.10;2.45;;;21.80;99.90;;;;;;5049251;28;20185;-30
2023/07/20 08:05:15;;;;;;;5.70;2.60;;;21.80;99.90;;;;;;5029583;28;20179;-30
2023/07/20 08:07:42;;;;;;;3.30;2.53;;;21.70;99.90;;;;;;5045866;28;20189;-31
2023/07/20 08:10:08;;;;;;;4.60;3.10;;;21.70;99.90;;;;;;5046104;28;20187;-30
2023/07/20 08:12:34;;;;;;;4.35;2.95;;;21.70;99.90;;;;;;5045841;28;20212;-30
2023/07/20 08:15:00;;;;;;;3.78;2.90;;;21.80;99.90;;;;;;5046033;28;20198;-30
2023/07/20 08:17:26;;;;;;;3.85;2.65;;;21.90;99.90;;;;;;5045971;28;20224;-30
2023/07/20 08:19:51;;;;;;;4.63;3.13;;;22.00;99.90;;;;;;5049655;28;20217;-30
2023/07/20 08:22:17;;;;;;;4.90;2.90;;;21.90;99.90;;;;;;5032758;28;20185;-30
2023/07/20 08:24:43;;;;;;;4.80;2.80;;;21.90;99.90;;;;;;5033032;28;20280;-30
2023/07/20 08:27:10;;;;;;;4.45;2.90;;;21.70;99.90;;;;;;5049032;28;20243;-30
2023/07/20 08:29:36;;;;;;;3.90;2.97;;;21.60;99.90;;;;;;5032598;28;20201;-30
2023/07/20 08:32:03;;;;;;;4.68;2.90;;;21.70;99.90;;;;;;5031679;28;20172;-30
2023/07/20 08:34:28;;;;;;;5.18;2.90;;;21.70;99.90;;;;;;5032466;28;20181;-30
2023/07/20 08:36:56;;;;;;;4.88;3.03;;;21.70;99.90;;;;;;5049430;28;20178;-30
2023/07/20 08:39:22;;;;;;;6.88;2.92;;;21.70;99.90;;;;;;5051763;28;20198;-30
2023/07/20 08:41:49;;;;;;;6.60;2.65;;;21.80;99.90;;;;;;5036444;28;20185;-30
2023/07/20 08:44:15;;;;;;;5.53;2.88;;;22.10;99.90;;;;;;5036388;28;20268;-30
2023/07/20 08:46:42;;;;;;;9.25;3.00;;;22.30;99.90;;;;;;5036471;28;20177;-30
2023/07/20 08:49:08;;;;;;;3.95;2.72;;;22.50;99.90;;;;;;5036087;28;20202;-30
2023/07/20 08:51:35;;;;;;;2.80;2.50;;;22.40;99.90;;;;;;5036517;28;20186;-30
2023/07/20 08:54:01;;;;;;;5.07;2.60;;;22.60;99.90;;;;;;5052993;28;20216;-30
2023/07/20 08:56:28;;;;;;;3.05;2.40;;;22.80;99.90;;;;;;5052929;28;20181;-30
2023/07/20 08:58:55;;;;;;;2.00;1.90;;;22.90;99.90;;;;;;5036334;28;20205;-30
2023/07/20 09:01:22;;;;;;;3.70;2.47;;;23.10;99.90;;;;;;5036177;28;20186;-31
2023/07/20 09:03:48;;;;;;;3.05;2.40;;;23.30;99.90;;;;;;5052843;28;20193;-31
2023/07/20 09:06:15;;;;;;;2.42;2.15;;;23.30;99.90;;;;;;5052789;28;20189;-30
2023/07/20 09:08:41;;;;;;;3.55;2.30;;;23.20;99.90;;;;;;5052227;28;20229;-31
2023/07/20 09:11:08;;;;;;;2.53;2.15;;;23.00;99.90;;;;;;5052725;28;20193;-30
2023/07/20 09:13:34;;;;;;;3.30;2.03;;;23.10;99.90;;;;;;5035999;28;20218;-30
2023/07/20 09:16:00;;;;;;;3.00;2.15;;;23.10;99.90;;;;;;5035904;28;20198;-30
2023/07/20 09:18:31;;;;;;;3.17;2.17;;;23.10;99.90;;;;;;5036145;28;20251;-31
2023/07/20 09:21:04;;;;;;;2.05;1.83;;;23.10;99.90;;;;;;5035907;28;20185;-30
2023/07/20 09:23:34;;;;;;;2.75;2.20;;;23.10;99.90;;;;;;5035832;28;20660;-31
2023/07/20 09:26:09;;;;;;;2.95;1.92;;;23.20;99.90;;;;;;5037748;28;20269;-30
2023/07/20 09:29:01;;;;;;;2.38;1.80;;;23.40;99.90;;;;;;5036143;28;20197;-30
2023/07/20 09:31:27;;;;;;;2.58;1.60;;;23.50;99.90;;;;;;5035143;28;20182;-30
2023/07/20 09:33:53;;;;;;;2.28;1.70;;;23.50;99.90;;;;;;5052096;28;20209;-30
2023/07/20 09:36:19;;;;;;;4.93;2.10;;;23.50;99.90;;;;;;5052309;28;20174;-30
2023/07/20 09:38:46;;;;;;;4.22;2.10;;;23.40;99.90;;;;;;5035757;28;20205;-31
2023/07/20 09:41:15;;;;;;;2.92;2.05;;;23.60;99.90;;;;;;5035367;28;20251;-30
2023/07/20 09:43:42;;;;;;;2.17;1.70;;;23.70;99.90;;;;;;5051344;28;20194;-31
2023/07/20 09:46:08;;;;;;;4.10;2.10;;;23.90;99.90;;;;;;5034998;28;20178;-31
2023/07/20 09:48:34;;;;;;;3.67;1.85;;;24.30;99.90;;;;;;5052185;28;20251;-30
2023/07/20 09:51:01;;;;;;;1.92;1.70;;;24.70;99.90;;;;;;5034823;28;20182;-31
2023/07/20 09:53:28;;;;;;;1.80;1.70;;;24.70;99.90;;;;;;5051438;28;20209;-30
2023/07/20 09:55:54;;;;;;;1.50;1.40;;;24.70;99.90;;;;;;5034936;28;20259;-31
2023/07/20 09:58:22;;;;;;;4.07;1.90;;;24.90;99.90;;;;;;5051543;28;20198;-31
2023/07/20 10:00:51;;;;;;;3.13;1.60;;;24.90;99.90;;;;;;5036045;28;20178;-30
2023/07/20 10:03:29;;;;;;;1.70;1.60;;;25.10;99.90;;;;;;5034750;28;20194;-30
2023/07/20 10:06:06;;;;;;;1.63;1.42;;;25.20;99.90;;;;;;5048909;28;20177;-30
2023/07/20 10:08:35;;;;;;;3.13;1.63;;;24.90;99.90;;;;;;5031987;28;20296;-29
2023/07/20 10:11:02;;;;;;;2.88;1.83;;;24.90;99.90;;;;;;5051106;28;20197;-30
2023/07/20 10:13:30;;;;;;;2.88;1.73;;;24.70;99.90;;;;;;5031284;28;20221;-30
2023/07/20 10:16:04;;;;;;;2.15;1.80;;;24.50;99.90;;;;;;5050285;28;20186;-30
2023/07/20 10:19:02;;;;;;;1.95;1.65;;;24.60;99.90;;;;;;5031724;28;20197;-31
2023/07/20 10:21:29;;;;;;;2.00;1.67;;;24.90;99.90;;;;;;5028184;28;20213;-30
2023/07/20 10:23:56;;;;;;;1.95;1.60;;;24.90;99.90;;;;;;5033968;28;20181;-30
2023/07/20 10:26:22;;;;;;;3.35;1.73;;;25.10;99.90;;;;;;5050003;28;20189;-30
2023/07/20 10:28:48;;;;;;;3.33;1.92;;;25.40;99.90;;;;;;5031425;28;20194;-30
2023/07/20 10:31:16;;;;;;;3.60;1.98;;;25.60;99.90;;;;;;5050489;28;20174;-29
2023/07/20 10:33:42;;;;;;;2.80;1.90;;;25.80;99.90;;;;;;5050652;28;20236;-30
2023/07/20 10:36:07;;;;;;;2.10;1.70;;;25.70;99.90;;;;;;5033201;28;20209;-30
2023/07/20 10:38:53;;;;;;;2.00;1.80;;;25.80;99.90;;;;;;5049495;28;20194;-30
2023/07/20 10:41:34;;;;;;;2.10;1.63;;;26.10;99.90;;;;;;5048979;28;20177;-29
2023/07/20 10:44:06;;;;;;;3.22;1.80;;;26.30;99.60;;;;;;5049100;28;20181;-29
2023/07/20 10:46:46;;;;;;;3.15;1.80;;;26.30;99.90;;;;;;5031199;28;20174;-29
2023/07/20 10:49:14;;;;;;;2.50;2.00;;;26.40;99.90;;;;;;5030540;28;20198;-30
2023/07/20 10:51:41;;;;;;;3.17;1.65;;;26.40;99.90;;;;;;5034416;28;20174;-30
2023/07/20 10:54:16;;;;;;;3.20;1.70;;;26.40;99.10;;;;;;5033053;28;20228;-30
2023/07/20 10:56:44;;;;;;;1.75;1.58;;;26.70;99.30;;;;;;5032809;28;20170;-30
2023/07/20 10:59:20;;;;;;;3.70;1.77;;;27.00;99.00;;;;;;5048501;28;20251;-30
2023/07/20 11:01:49;;;;;;;3.17;1.73;;;27.30;98.30;;;;;;5048073;28;20166;-30
2023/07/20 11:04:18;;;;;;;2.67;1.75;;;27.10;97.60;;;;;;5050151;28;20205;-30
2023/07/20 11:06:44;;;;;;;2.85;1.92;;;26.70;98.00;;;;;;5032196;28;20184;-31
2023/07/20 11:09:15;;;;;;;3.17;1.70;;;26.60;97.70;;;;;;5035550;28;20210;-30
2023/07/20 11:11:43;;;;;;;1.90;1.67;;;26.70;98.20;;;;;;5035604;28;20188;-29
2023/07/20 11:14:19;;;;;;;1.85;1.52;;;26.90;97.50;;;;;;5035669;28;20297;-31
2023/07/20 11:16:47;;;;;;;1.70;1.60;;;27.10;97.70;;;;;;5029882;28;20184;-31
2023/07/20 11:19:26;;;;;;;2.50;1.65;;;27.20;97.00;;;;;;5032637;28;20197;-30
2023/07/20 11:21:57;;;;;;;2.90;1.60;;;27.30;97.30;;;;;;5048334;28;20174;-30
2023/07/20 11:24:23;;;;;;;5.25;1.92;;;27.50;96.40;;;;;;5046967;28;20193;-31
2023/07/20 11:26:51;;;;;;;2.33;1.40;;;27.40;96.70;;;;;;5036580;28;20176;-31
2023/07/20 11:29:19;;;;;;;1.77;1.67;;;27.50;95.50;;;;;;5047901;28;20202;-30
2023/07/20 11:31:46;;;;;;;2.55;1.60;;;27.70;95.00;;;;;;5048910;28;20177;-31
2023/07/20 11:34:21;;;;;;;2.63;1.50;;;27.90;94.50;;;;;;5049110;28;20213;-30
2023/07/20 11:36:48;;;;;;;3.05;1.58;;;27.90;96.00;;;;;;5032384;28;20212;-31
2023/07/20 11:39:19;;;;;;;3.35;1.83;;;27.90;95.40;;;;;;5032605;28;20664;-31
2023/07/20 11:41:55;;;;;;;1.80;1.58;;;27.90;95.00;;;;;;5049006;28;20182;-30
2023/07/20 11:44:29;;;;;;;1.73;1.63;;;27.90;94.10;;;;;;5053410;28;20188;-30
2023/07/20 11:47:09;;;;;;;2.40;1.67;;;27.60;94.50;;;;;;5068850;28;20260;-30
2023/07/20 11:49:41;;;;;;;3.25;1.65;;;27.50;94.40;;;;;;5044331;28;20205;-30
2023/07/20 11:52:13;;;;;;;4.25;1.70;;;27.70;96.40;;;;;;5049110;28;20182;-30
2023/07/20 11:54:40;;;;;;;1.85;1.33;;;28.00;95.80;;;;;;5032984;28;20201;-32
2023/07/20 11:57:06;;;;;;;1.85;1.45;;;28.00;94.30;;;;;;5049456;28;20201;-31
2023/07/20 11:59:32;;;;;;;4.43;1.55;;;27.90;94.30;;;;;;5041288;28;20198;-30
2023/07/20 12:02:03;;;;;;;2.15;1.67;;;27.90;95.10;;;;;;5049490;28;20189;-30
2023/07/20 12:04:31;;;;;;;1.75;1.50;;;28.10;94.90;;;;;;5032648;28;20170;-30
2023/07/20 12:06:57;;;;;;;2.83;1.70;;;28.30;93.60;;;;;;5049371;28;20247;-30
2023/07/20 12:09:23;;;;;;;2.10;1.60;;;28.60;93.20;;;;;;5048419;28;20672;-30
2023/07/20 12:11:50;;;;;;;1.73;1.63;;;28.70;93.60;;;;;;5050386;28;20201;-30
2023/07/20 12:14:16;;;;;;;4.25;1.42;;;28.80;92.50;;;;;;5050983;28;20215;-28
2023/07/20 12:16:42;;;;;;;2.88;1.65;;;28.80;92.20;;;;;;5049844;28;20186;-32
2023/07/20 12:19:12;;;;;;;1.63;1.52;;;28.80;92.70;;;;;;5054860;28;20288;-30
2023/07/20 12:21:45;;;;;;;1.77;1.60;;;28.90;92.40;;;;;;5052197;28;20180;-30
2023/07/20 12:24:11;;;;;;;2.08;1.50;;;29.10;92.70;;;;;;5053821;28;20209;-31
2023/07/20 12:26:37;;;;;;;3.65;1.70;;;28.90;92.40;;;;;;5052443;28;20189;-31
2023/07/20 12:29:04;;;;;;;3.33;1.67;;;28.60;91.80;;;;;;5035913;28;20203;-30
2023/07/20 12:31:30;;;;;;;2.33;1.70;;;28.40;92.80;;;;;;5051055;28;20268;-34
2023/07/20 12:33:57;;;;;;;1.63;1.52;;;28.40;93.20;;;;;;5051097;28;20206;-29
2023/07/20 12:36:25;;;;;;;3.53;1.63;;;28.40;92.70;;;;;;5029976;28;20181;-31
2023/07/20 12:38:51;;;;;;;2.60;1.60;;;28.70;93.30;;;;;;5051496;28;20229;-30
2023/07/20 12:41:19;;;;;;;2.53;1.60;;;29.10;92.20;;;;;;5048458;28;20216;-30
2023/07/20 12:43:46;;;;;;;2.10;1.70;;;29.30;91.80;;;;;;5062376;28;20263;-30
2023/07/20 12:46:13;;;;;;;1.92;1.58;;;28.90;91.90;;;;;;5056682;28;20178;-30
2023/07/20 12:48:41;;;;;;;2.83;1.80;;;28.80;92.10;;;;;;5036850;28;20288;-31
2023/07/20 12:51:09;;;;;;;2.85;1.90;;;28.70;91.30;;;;;;5044647;28;20182;-29